Thursday, May 25, 2017, 8:23 AM EDT

KTHV, York Airport

Location: Spring Grove, PA, United States Lat: 39.917
Local Time: 8:23 AM EDT (12:23 GMT) Lon: -76.883
Time Zone: US/Eastern Elev: 478 ft

Show me the last for .
Show Decoded

2017-05-25 08:01 METAR KTHV 251201Z AUTO 11009KT 9SM -RA OVC010 13/13 A2952 RMK AO2 P0000
                 T01330128 TSNO =
2017-05-25 07:53 METAR KTHV 251153Z AUTO 10010KT 2 1/2SM -RA BR OVC010 13/13 A2952 RMK AO2 RAB09
                 SLP996 P0016 60030 70032 T01330128 10139 20128 56013 TSNO =
2017-05-25 07:51 METAR KTHV 251151Z AUTO 10009G18KT 2SM RA BR OVC010 13/13 A2952 RMK AO2 RAB09
                 P0016 TSNO =
2017-05-25 07:35 METAR KTHV 251135Z AUTO 10011KT 1 3/4SM +RA BR OVC008 13/13 A2952 RMK AO2 RAB09
                 CIG 005V010 P0010 T01280128 TSNO =
2017-05-25 07:32 METAR KTHV 251132Z AUTO 09012KT 2 1/2SM RA BR OVC008 13/13 A2952 RMK AO2 RAB09
                 CIG 005V013 P0007 T01280128 TSNO =
2017-05-25 07:25 METAR KTHV 251125Z AUTO 10012KT 1 1/2SM RA BR OVC008 13/13 A2951 RMK AO2 RAB09
                 CIG 005V013 P0006 T01280128 TSNO =
2017-05-25 07:18 METAR KTHV 251118Z AUTO 10010KT 2SM -RA BR OVC008 13/13 A2951 RMK AO2 RAB09 CIG
                 005V009 P0004 T01330128 TSNO =
2017-05-25 06:53 METAR KTHV 251053Z AUTO 09010KT 10SM OVC008 13/13 A2952 RMK AO2 RAE48 CIG
                 005V011 SLP996 P0001 T01330133 TSNO =
2017-05-25 06:44 METAR KTHV 251044Z AUTO 09013KT 7SM -RA OVC008 13/13 A2952 RMK AO2 CIG 005V013
                 P0001 T01330133 TSNO =
2017-05-25 06:36 METAR KTHV 251036Z AUTO 09011KT 4SM -RA BR OVC006 13/13 A2953 RMK AO2 CIG
                 005V013 P0001 T01280128 TSNO =
2017-05-25 06:27 METAR KTHV 251027Z AUTO 10010KT 2 1/2SM -RA BR OVC006 13/13 A2953 RMK AO2 VIS 1
                 3/4V3 CIG 005V009 P0001 T01280128 TSNO =
2017-05-25 06:19 METAR KTHV 251019Z AUTO 09010KT 2 1/2SM -RA BR BKN008 OVC011 13/13 A2954 RMK AO2
                 CIG 006V009 P0001 T01280128 TSNO =
2017-05-25 05:53 METAR KTHV 250953Z AUTO 10009KT 3SM -RA BR OVC008 13/13 A2954 RMK AO2 RAE05B38
                 CIG 006V011 SLP005 P0003 T01280128 TSNO =
2017-05-25 05:17 METAR KTHV 250917Z AUTO 10009KT 10SM OVC009 13/13 A2955 RMK AO2 RAE05 CIG
                 007V013 P0000 T01280128 TSNO =
2017-05-25 04:53 METAR KTHV 250853Z AUTO 10010KT 5SM -RA BR OVC010 13/13 A2955 RMK AO2 CIG
                 007V013 SLP009 P0003 60010 T01280128 58037 TSNO =
2017-05-25 03:53 METAR KTHV 250753Z AUTO 10008KT 10SM -RA OVC012 13/13 A2959 RMK AO2 SLP022 P0003
                 T01330128 TSNO =
2017-05-25 02:53 METAR KTHV 250653Z AUTO 09012KT 7SM -RA OVC013 13/13 A2963 RMK AO2 SLP034 P0004
                 T01330128 TSNO =
2017-05-25 02:30 METAR KTHV 250630Z AUTO 10009KT 7SM -RA OVC014 13/13 A2964 RMK AO2 P0002
                 T01330128 TSNO =
2017-05-25 01:53 METAR KTHV 250553Z AUTO 10012KT 10SM -RA OVC018 14/12 A2966 RMK AO2 RAB05 SLP046
                 P0002 60002 T01390122 10172 20139 56019 TSNO =
2017-05-25 00:53 METAR KTHV 250453Z AUTO 11014G20KT 10SM BKN024 OVC049 15/12 A2968 RMK AO2
                 RAB44E53 SLP050 P0000 T01500117 402060128 TSNO =
2017-05-25 00:19 METAR KTHV 250419Z AUTO 10007KT 10SM BKN024 OVC060 15/12 A2969 RMK AO2 T01500117
                 TSNO =
2017-05-25 00:06 METAR KTHV 250406Z AUTO 10012KT 10SM SCT025 BKN060 OVC075 16/12 A2969 RMK AO2
                 T01560117 TSNO =
2017-05-24 23:53 METAR KTHV 250353Z AUTO 10010KT 10SM BKN025 OVC055 16/12 A2970 RMK AO2 SLP058
                 T01560122 TSNO =
2017-05-24 22:53 METAR KTHV 250253Z AUTO 11007KT 10SM BKN022 BKN065 BKN095 16/13 A2972 RMK AO2
                 SLP065 T01560128 58001 TSNO =
2017-05-24 22:09 METAR KTHV 250209Z AUTO 11013KT 10SM SCT026 BKN070 OVC085 17/13 A2972 RMK AO2
                 T01670128 TSNO =
2017-05-24 21:53 METAR KTHV 250153Z AUTO 15010KT 10SM OVC028 17/13 A2973 RMK AO2 SLP070 T01670128
                 TSNO =
2017-05-24 21:48 METAR KTHV 250148Z AUTO 14008KT 10SM OVC028 17/13 A2973 RMK AO2 TSNO =
2017-05-24 20:53 METAR KTHV 250053Z AUTO 12005KT 10SM BKN038 OVC080 17/13 A2972 RMK AO2 SLP066
                 T01720133 TSNO =
2017-05-24 19:53 METAR KTHV 242353Z AUTO 13006KT 10SM OVC033 17/13 A2972 RMK AO2 SLP066 T01720133
                 10206 20172 55000 TSNO =
2017-05-24 18:53 METAR KTHV 242253Z AUTO 12009KT 10SM SCT034 BKN045 OVC050 18/13 A2972 RMK AO2
                 SLP064 T01780133 TSNO =
2017-05-24 17:53 METAR KTHV 242153Z AUTO VRB05KT 10SM SCT032 OVC055 19/13 A2972 RMK AO2 SLP064
                 T01890128 TSNO =
2017-05-24 16:53 METAR KTHV 242053Z AUTO 15008KT 10SM OVC039 19/13 A2972 RMK AO2 SLP066 T01890128
                 58000 TSNO =
2017-05-24 15:53 METAR KTHV 241953Z AUTO 15008KT 10SM SCT042 OVC050 19/12 A2974 RMK AO2 SLP072
                 T01890117 TSNO =
2017-05-24 14:53 METAR KTHV 241853Z AUTO 12010KT 10SM OVC048 20/12 A2973 RMK AO2 SLP066 T02000122
                 TSNO =
2017-05-24 13:53 METAR KTHV 241753Z AUTO 13008KT 10SM OVC048 19/13 A2973 RMK AO2 SLP067 T01940128
                 10194 20139 56006 TSNO =
2017-05-24 12:53 METAR KTHV 241653Z AUTO 11005KT 10SM SCT038 OVC046 19/13 A2973 RMK AO2 SLP070
                 T01890128 TSNO =
2017-05-24 11:53 METAR KTHV 241553Z AUTO VRB04KT 10SM OVC090 19/13 A2973 RMK AO2 SLP068 T01890128
                 TSNO =
2017-05-24 10:53 METAR KTHV 241453Z AUTO 10006KT 8SM SCT025 OVC090 18/13 A2974 RMK AO2 SLP072
                 T01780133 56002 TSNO =
2017-05-24 10:49 METAR KTHV 241449Z AUTO 00000KT 8SM SCT025 OVC090 18/13 A2975 RMK AO2 TSNO =
2017-05-24 10:26 METAR KTHV 241426Z AUTO 08005KT 6SM HZ FEW018 BKN026 BKN080 17/13 A2974 RMK AO2
                 T01720133 TSNO =
2017-05-24 09:53 METAR KTHV 241353Z AUTO 09005KT 7SM FEW018 17/13 A2974 RMK AO2 SLP071 T01670128
                 TSNO =
2017-05-24 08:53 METAR KTHV 241253Z AUTO 00000KT 5SM HZ BKN070 16/13 A2975 RMK AO2 SLP074
                 T01560128 TSNO =
2017-05-24 08:46 METAR KTHV 241246Z AUTO 00000KT 5SM BR FEW009 BKN070 16/13 A2975 RMK AO2
                 T01560133 TSNO =

Support USWX by starting your Amazon purchase here.